createdAt,value
2022-10-25T00:02:32.671Z,90.20
2022-10-25T00:05:03.188Z,88.60
2022-10-25T00:07:36.472Z,89.00
2022-10-25T00:10:06.961Z,85.70
2022-10-25T00:12:44.339Z,86.00
2022-10-25T00:15:16.978Z,87.00
2022-10-25T00:17:48.650Z,84.70
2022-10-25T00:20:19.467Z,84.80
2022-10-25T00:22:50.216Z,84.80
2022-10-25T00:25:20.922Z,83.40
2022-10-25T00:27:51.047Z,83.40
2022-10-25T00:30:21.340Z,83.80
2022-10-25T00:32:54.426Z,82.30
2022-10-25T00:35:24.595Z,82.80
2022-10-25T00:37:54.989Z,81.40
2022-10-25T00:40:25.138Z,81.10
2022-10-25T00:42:55.312Z,81.60
2022-10-25T00:45:30.159Z,84.00
2022-10-25T00:48:14.695Z,82.80
2022-10-25T00:50:56.780Z,83.10
2022-10-25T00:53:36.567Z,84.20
2022-10-25T00:56:22.053Z,85.50
2022-10-25T00:58:57.118Z,84.30
2022-10-25T01:01:28.422Z,84.10
2022-10-25T01:04:02.566Z,83.70
2022-10-25T01:06:45.788Z,83.60
2022-10-25T01:09:22.503Z,82.80
2022-10-25T01:11:53.122Z,84.70
2022-10-25T01:14:23.982Z,83.90
2022-10-25T01:17:32.951Z,83.30
2022-10-25T01:20:35.433Z,82.10
2022-10-25T01:23:22.462Z,82.20
2022-10-25T01:26:14.005Z,80.10
2022-10-25T01:29:09.083Z,80.70
2022-10-25T01:31:46.432Z,78.00
2022-10-25T01:34:39.053Z,78.90
2022-10-25T01:37:54.463Z,78.50
2022-10-25T01:40:33.431Z,78.80
2022-10-25T01:43:11.512Z,79.70
2022-10-25T01:46:17.972Z,79.60
2022-10-25T01:48:56.739Z,80.00
2022-10-25T01:51:31.160Z,79.60
2022-10-25T01:54:01.728Z,79.60
2022-10-25T01:56:48.959Z,76.70
2022-10-25T01:59:49.288Z,76.50
2022-10-25T02:02:32.556Z,73.90
2022-10-25T02:05:28.560Z,72.80
2022-10-25T02:08:35.815Z,74.00
2022-10-25T02:11:11.887Z,73.20
2022-10-25T02:14:03.459Z,72.30
2022-10-25T02:17:06.453Z,72.30
2022-10-25T02:19:53.764Z,74.10
2022-10-25T02:22:28.767Z,72.00
2022-10-25T02:25:00.325Z,73.40
2022-10-25T02:27:32.873Z,73.20
2022-10-25T02:30:04.827Z,74.20
2022-10-25T02:32:35.614Z,73.50
2022-10-25T02:35:06.141Z,73.10
2022-10-25T02:37:37.077Z,73.00
2022-10-25T02:40:07.991Z,74.20
2022-10-25T02:42:38.211Z,74.10
2022-10-25T02:45:09.330Z,74.00
2022-10-25T02:47:40.748Z,74.60
2022-10-25T02:50:11.501Z,72.70
2022-10-25T02:52:43.398Z,72.60
2022-10-25T02:55:14.580Z,72.50
2022-10-25T02:57:45.373Z,72.30
2022-10-25T03:00:16.689Z,73.30
2022-10-25T03:02:48.651Z,73.80
2022-10-25T03:05:19.084Z,73.70
2022-10-25T03:07:49.782Z,74.30
2022-10-25T03:10:20.101Z,75.10
2022-10-25T03:12:50.740Z,75.10
2022-10-25T03:15:21.533Z,74.50
2022-10-25T03:17:52.179Z,74.80
2022-10-25T03:20:22.442Z,75.40
2022-10-25T03:22:52.629Z,75.20
2022-10-25T03:25:23.086Z,75.30
2022-10-25T03:27:53.267Z,74.30
2022-10-25T03:30:23.674Z,75.20
2022-10-25T03:32:53.893Z,71.90
2022-10-25T03:35:24.212Z,72.10
2022-10-25T03:37:55.220Z,73.40
2022-10-25T03:40:26.221Z,72.80
2022-10-25T03:42:56.876Z,72.50
2022-10-25T03:45:27.614Z,71.70
2022-10-25T03:47:59.190Z,71.70
2022-10-25T03:50:30.016Z,71.40
2022-10-25T03:53:00.287Z,71.40
2022-10-25T03:55:30.556Z,71.70
2022-10-25T03:58:01.695Z,72.50
2022-10-25T04:00:32.369Z,74.20
2022-10-25T04:03:04.244Z,74.00
2022-10-25T04:05:35.191Z,72.30
2022-10-25T04:08:05.562Z,73.60
2022-10-25T04:10:35.795Z,73.00
2022-10-25T04:13:06.177Z,74.20
2022-10-25T04:15:36.563Z,72.80
2022-10-25T04:18:07.299Z,73.50
2022-10-25T04:20:37.569Z,73.70
2022-10-25T04:23:07.989Z,73.20
2022-10-25T04:25:38.835Z,74.20
2022-10-25T04:28:09.551Z,74.10
2022-10-25T04:30:39.907Z,74.10
2022-10-25T04:33:11.156Z,74.50
2022-10-25T04:35:41.441Z,73.90
2022-10-25T04:38:13.611Z,74.10
2022-10-25T04:40:44.121Z,75.50
2022-10-25T04:43:14.308Z,78.20
2022-10-25T04:45:44.919Z,78.10
2022-10-25T04:48:15.399Z,78.10
2022-10-25T04:50:46.815Z,78.80
2022-10-25T04:53:19.973Z,79.70
2022-10-25T04:56:04.405Z,81.50
2022-10-25T04:58:35.467Z,81.70
2022-10-25T05:01:11.367Z,82.80
2022-10-25T05:03:41.877Z,84.20
2022-10-25T05:06:18.827Z,83.40
2022-10-25T05:08:51.386Z,83.00
2022-10-25T05:11:25.031Z,83.60
2022-10-25T05:13:55.737Z,82.60
2022-10-25T05:16:28.067Z,82.80
2022-10-25T05:18:58.558Z,87.20
2022-10-25T05:21:32.389Z,88.00
2022-10-25T05:24:03.243Z,90.40
2022-10-25T05:26:34.299Z,91.00
2022-10-25T05:29:06.718Z,91.60
2022-10-25T05:31:42.931Z,92.20
2022-10-25T05:34:14.132Z,92.70
2022-10-25T05:36:44.440Z,93.20
2022-10-25T05:39:14.880Z,93.80
2022-10-25T05:41:49.631Z,94.20
2022-10-25T05:44:20.792Z,94.70
2022-10-25T05:46:51.157Z,95.10
2022-10-25T05:49:21.363Z,95.50
2022-10-25T05:51:51.567Z,95.10
2022-10-25T05:54:21.794Z,95.70
2022-10-25T05:56:52.177Z,95.90
2022-10-25T05:59:22.362Z,96.70
2022-10-25T06:01:52.717Z,97.10
2022-10-25T06:04:23.021Z,96.70
2022-10-25T06:06:53.996Z,96.60
2022-10-25T06:09:24.256Z,96.00
2022-10-25T06:11:54.858Z,95.90
2022-10-25T06:14:24.993Z,95.40
2022-10-25T06:16:55.189Z,95.60
2022-10-25T06:19:25.348Z,95.90
2022-10-25T06:21:58.008Z,95.70
2022-10-25T06:24:28.252Z,95.70
2022-10-25T06:26:58.909Z,95.70
2022-10-25T06:29:29.508Z,95.50
2022-10-25T06:32:00.377Z,95.80
2022-10-25T06:34:31.111Z,96.00
2022-10-25T06:37:01.310Z,96.10
2022-10-25T06:39:31.486Z,95.80
2022-10-25T06:42:01.609Z,96.50
2022-10-25T06:44:32.249Z,96.20
2022-10-25T06:47:16.806Z,96.00
2022-10-25T06:49:49.902Z,95.60
2022-10-25T06:52:20.481Z,95.60
2022-10-25T06:54:51.052Z,95.60
2022-10-25T06:57:22.755Z,95.50
2022-10-25T06:59:54.267Z,95.20
2022-10-25T07:02:25.027Z,95.40
2022-10-25T07:04:55.741Z,95.40
2022-10-25T07:07:28.169Z,94.80
2022-10-25T07:09:58.769Z,95.00
2022-10-25T07:12:29.530Z,95.00
2022-10-25T07:15:00.958Z,95.20
2022-10-25T07:17:32.762Z,95.60
2022-10-25T07:20:03.330Z,95.50
2022-10-25T07:22:33.786Z,95.60
2022-10-25T07:25:04.466Z,95.60
2022-10-25T07:27:35.763Z,95.80
2022-10-25T07:30:06.533Z,95.90
2022-10-25T07:32:41.449Z,96.20
2022-10-25T07:35:12.703Z,96.00
2022-10-25T07:37:42.981Z,96.10
2022-10-25T07:40:13.632Z,96.20
2022-10-25T07:42:44.045Z,96.30
2022-10-25T07:45:16.257Z,96.30
2022-10-25T07:47:49.087Z,96.20
2022-10-25T07:50:21.700Z,96.10
2022-10-25T07:52:51.958Z,95.90
2022-10-25T07:55:22.113Z,96.00
2022-10-25T07:57:52.267Z,96.40
2022-10-25T08:00:23.079Z,96.10
2022-10-25T08:02:53.519Z,96.10
2022-10-25T08:05:23.852Z,96.10
2022-10-25T08:07:53.989Z,95.80
2022-10-25T08:10:25.228Z,95.90
2022-10-25T08:12:57.319Z,95.80
2022-10-25T08:15:27.501Z,96.10
2022-10-25T08:18:05.085Z,96.70
2022-10-25T08:23:27.509Z,96.50
2022-10-25T08:25:58.145Z,96.50
2022-10-25T08:28:29.220Z,96.40
2022-10-25T08:30:59.410Z,96.30
2022-10-25T08:33:29.683Z,95.90
2022-10-25T08:36:03.635Z,95.90
2022-10-25T08:38:34.290Z,95.80
2022-10-25T08:41:08.896Z,95.90
2022-10-25T08:43:54.781Z,95.90
2022-10-25T08:47:04.563Z,96.10
2022-10-25T08:50:08.463Z,96.40
2022-10-25T08:52:57.527Z,96.20
2022-10-25T08:55:48.581Z,96.10
2022-10-25T08:58:39.050Z,96.60
2022-10-25T09:01:21.521Z,96.40
2022-10-25T09:03:52.280Z,96.40
2022-10-25T09:06:28.321Z,96.50
2022-10-25T09:09:07.728Z,96.80
2022-10-25T09:11:49.983Z,97.40
2022-10-25T09:14:28.017Z,96.70
2022-10-25T09:17:28.965Z,97.00
2022-10-25T09:20:17.427Z,97.20
2022-10-25T09:22:49.445Z,97.10
2022-10-25T09:25:32.296Z,97.20
2022-10-25T09:28:06.426Z,97.60
2022-10-25T09:30:46.481Z,97.30
2022-10-25T09:33:20.454Z,96.80
2022-10-25T09:36:01.283Z,96.80
2022-10-25T09:38:42.670Z,96.80
2022-10-25T09:41:12.850Z,96.80
2022-10-25T09:44:12.806Z,96.90
2022-10-25T09:47:19.303Z,96.80
2022-10-25T09:50:06.150Z,96.70
2022-10-25T09:53:11.323Z,96.90
2022-10-25T09:56:00.876Z,96.90
2022-10-25T09:58:38.173Z,96.70
2022-10-25T10:01:26.092Z,96.90
2022-10-25T10:04:02.515Z,96.90
2022-10-25T10:06:39.892Z,97.00
2022-10-25T10:09:16.559Z,96.90
2022-10-25T10:11:49.730Z,97.10
2022-10-25T10:14:26.175Z,97.00
2022-10-25T10:17:00.149Z,97.20
2022-10-25T10:19:32.274Z,97.30
2022-10-25T10:22:11.998Z,97.20
2022-10-25T10:24:47.380Z,97.10
2022-10-25T10:27:37.563Z,97.20
2022-10-25T10:30:20.942Z,97.30
2022-10-25T10:32:57.773Z,97.40
2022-10-25T10:35:37.445Z,97.40
2022-10-25T10:38:28.297Z,97.20
2022-10-25T10:41:16.233Z,97.50
2022-10-25T10:43:46.889Z,97.50
2022-10-25T10:46:22.145Z,97.30
2022-10-25T10:48:58.299Z,97.30
2022-10-25T10:51:45.441Z,97.40
2022-10-25T10:54:34.377Z,97.20
2022-10-25T10:57:07.366Z,97.50
2022-10-25T10:59:42.224Z,97.50
2022-10-25T11:02:46.775Z,97.40
2022-10-25T11:08:32.653Z,97.60
2022-10-25T11:11:21.491Z,97.50
2022-10-25T11:14:01.603Z,97.70
2022-10-25T11:16:46.788Z,97.70
2022-10-25T11:19:20.374Z,97.50
2022-10-25T11:22:32.960Z,97.40
2022-10-25T11:25:09.798Z,97.70
2022-10-25T11:27:54.349Z,97.70
2022-10-25T11:30:27.325Z,97.80
2022-10-25T11:33:27.578Z,97.60
2022-10-25T11:36:03.923Z,97.50
2022-10-25T11:38:42.053Z,97.40
2022-10-25T11:41:25.089Z,97.60
2022-10-25T11:44:19.909Z,98.20
2022-10-25T11:46:57.518Z,97.70
2022-10-25T11:49:39.840Z,97.80
2022-10-25T11:52:19.086Z,97.80
2022-10-25T11:55:07.330Z,97.70
2022-10-25T11:58:07.982Z,97.80
2022-10-25T12:01:06.520Z,97.90
2022-10-25T12:03:57.084Z,97.90
2022-10-25T12:06:47.831Z,98.10
2022-10-25T12:09:49.973Z,98.20
2022-10-25T12:12:27.494Z,98.10
2022-10-25T12:15:01.989Z,98.20
2022-10-25T12:17:37.280Z,98.20
2022-10-25T12:20:13.531Z,98.20
2022-10-25T12:22:48.560Z,98.30
2022-10-25T12:25:23.986Z,98.50
2022-10-25T12:28:02.648Z,98.30
2022-10-25T12:30:35.139Z,98.40
2022-10-25T12:33:27.209Z,98.50
2022-10-25T12:36:03.868Z,98.20
2022-10-25T12:38:36.315Z,98.30
2022-10-25T12:41:28.313Z,98.40
2022-10-25T12:44:19.863Z,98.40
2022-10-25T12:47:11.809Z,98.50
2022-10-25T12:50:00.249Z,98.50
2022-10-25T12:53:04.737Z,98.60
2022-10-25T12:56:11.720Z,98.60
2022-10-25T12:59:00.283Z,98.50
2022-10-25T13:01:30.464Z,98.70
2022-10-25T13:04:27.870Z,98.60
2022-10-25T13:06:59.643Z,98.60
2022-10-25T13:09:35.583Z,98.50
2022-10-25T13:12:08.770Z,98.60
2022-10-25T13:14:56.022Z,98.70
2022-10-25T13:17:27.171Z,98.70
2022-10-25T13:22:48.757Z,98.60
2022-10-25T13:25:41.832Z,98.50
2022-10-25T13:28:19.341Z,98.40
2022-10-25T13:30:49.537Z,98.50
2022-10-25T13:33:20.541Z,98.30
2022-10-25T13:35:53.455Z,98.20
2022-10-25T13:38:39.760Z,98.30
2022-10-25T13:41:20.372Z,98.50
2022-10-25T13:44:08.527Z,98.40
2022-10-25T13:46:42.099Z,98.50
2022-10-25T13:49:30.637Z,98.50
2022-10-25T13:52:09.611Z,98.60
2022-10-25T13:54:45.988Z,98.70
2022-10-25T13:57:46.672Z,98.60
2022-10-25T14:00:36.642Z,98.70
2022-10-25T14:03:10.796Z,98.80
2022-10-25T14:05:59.732Z,98.70
2022-10-25T14:08:45.637Z,98.80
2022-10-25T14:11:19.138Z,98.90
2022-10-25T14:14:23.558Z,99.10
2022-10-25T14:17:24.896Z,99.10
2022-10-25T14:19:59.438Z,99.30
2022-10-25T14:22:43.379Z,99.40
2022-10-25T14:25:39.826Z,99.50
2022-10-25T14:28:37.837Z,99.40
2022-10-25T14:31:15.148Z,99.50
2022-10-25T14:33:53.346Z,99.50
2022-10-25T14:36:35.242Z,99.60
2022-10-25T14:39:17.829Z,99.80
2022-10-25T14:41:57.123Z,99.80
2022-10-25T14:44:46.422Z,99.70
2022-10-25T14:47:34.870Z,99.70
2022-10-25T14:52:39.808Z,99.70
2022-10-25T14:55:10.758Z,99.70
2022-10-25T14:57:41.701Z,99.60
2022-10-25T15:00:24.775Z,99.70
2022-10-25T15:03:17.762Z,99.60
2022-10-25T15:05:48.426Z,99.50
2022-10-25T15:08:31.582Z,99.50
2022-10-25T15:11:08.105Z,99.40
2022-10-25T15:13:49.599Z,99.50
2022-10-25T15:16:32.176Z,99.70
2022-10-25T15:19:15.406Z,99.70
2022-10-25T15:21:55.312Z,99.70
2022-10-25T15:24:30.380Z,99.80
2022-10-25T15:27:05.834Z,99.70
2022-10-25T15:32:30.821Z,99.90
2022-10-25T15:35:03.629Z,99.90
2022-10-25T15:37:34.220Z,99.80
2022-10-25T15:40:07.753Z,99.90
2022-10-25T15:42:38.582Z,99.70
2022-10-25T15:45:11.019Z,99.90
2022-10-25T15:47:44.634Z,99.90
2022-10-25T15:50:21.604Z,99.90
2022-10-25T15:52:52.212Z,99.70
2022-10-25T15:55:26.319Z,99.60
2022-10-25T15:57:57.804Z,99.40
2022-10-25T16:00:29.333Z,99.40
2022-10-25T16:03:01.112Z,99.30
2022-10-25T16:05:40.069Z,99.20
2022-10-25T16:08:11.194Z,99.30
2022-10-25T16:10:41.519Z,99.20
2022-10-25T16:13:26.054Z,99.30
2022-10-25T16:15:56.997Z,99.20
2022-10-25T16:18:31.741Z,99.00
2022-10-25T16:21:02.433Z,99.20
2022-10-25T16:23:33.276Z,99.40
2022-10-25T16:26:03.480Z,99.30
2022-10-25T16:28:33.638Z,99.40
2022-10-25T16:31:05.189Z,99.50
2022-10-25T16:33:35.786Z,99.50
2022-10-25T16:36:07.010Z,99.60
2022-10-25T16:38:41.683Z,99.50
2022-10-25T16:41:39.877Z,99.50
2022-10-25T16:44:11.801Z,99.40
2022-10-25T16:46:42.734Z,99.20
2022-10-25T16:49:13.215Z,99.40
2022-10-25T16:51:43.986Z,99.30
2022-10-25T16:54:15.722Z,99.60
2022-10-25T16:56:46.122Z,99.40
2022-10-25T16:59:16.744Z,99.30
2022-10-25T17:01:48.251Z,99.30
2022-10-25T17:04:18.707Z,99.50
2022-10-25T17:06:49.291Z,99.60
2022-10-25T17:09:20.075Z,99.60
2022-10-25T17:11:50.311Z,99.40
2022-10-25T17:14:20.912Z,99.20
2022-10-25T17:16:51.130Z,99.20
2022-10-25T17:19:21.281Z,99.20
2022-10-25T17:21:51.613Z,99.10
2022-10-25T17:24:22.231Z,99.10
2022-10-25T17:26:52.926Z,98.80
2022-10-25T17:29:23.174Z,98.60
2022-10-25T17:31:54.194Z,98.70
2022-10-25T17:34:24.985Z,98.90
2022-10-25T17:36:55.920Z,98.80
2022-10-25T17:39:26.602Z,98.90
2022-10-25T17:41:57.037Z,98.90
2022-10-25T17:44:27.200Z,99.00
2022-10-25T17:46:59.548Z,99.10
2022-10-25T17:49:32.556Z,99.10
2022-10-25T17:52:02.845Z,99.10
2022-10-25T17:54:33.878Z,99.20
2022-10-25T17:57:06.293Z,99.30
2022-10-25T17:59:38.871Z,99.30
2022-10-25T18:02:10.987Z,99.40
2022-10-25T18:04:53.616Z,99.30
2022-10-25T18:07:34.205Z,99.20
2022-10-25T18:10:07.143Z,99.40
2022-10-25T18:12:37.324Z,99.40
2022-10-25T18:15:08.411Z,99.20
2022-10-25T18:17:38.606Z,99.10
2022-10-25T18:20:09.394Z,99.30
2022-10-25T18:22:39.560Z,99.40
2022-10-25T18:25:10.680Z,99.40
2022-10-25T18:27:41.077Z,99.40
2022-10-25T18:30:12.084Z,99.50
2022-10-25T18:32:42.351Z,99.40
2022-10-25T18:35:12.806Z,99.30
2022-10-25T18:37:43.363Z,99.30
2022-10-25T18:40:15.982Z,99.10
2022-10-25T18:42:46.518Z,99.20
2022-10-25T18:45:17.081Z,99.10
2022-10-25T18:47:51.042Z,99.30
2022-10-25T18:50:22.062Z,99.30
2022-10-25T18:52:55.525Z,99.30
2022-10-25T18:55:28.025Z,99.30
2022-10-25T18:57:58.440Z,99.30
2022-10-25T19:00:29.419Z,99.80
2022-10-25T19:03:01.155Z,99.10
2022-10-25T19:05:33.111Z,99.30
2022-10-25T19:08:03.382Z,99.30
2022-10-25T19:10:33.514Z,99.40
2022-10-25T19:13:03.680Z,99.30
2022-10-25T19:15:34.454Z,99.30
2022-10-25T19:18:05.038Z,99.40
2022-10-25T19:20:35.921Z,99.30
2022-10-25T19:23:06.117Z,99.30
2022-10-25T19:25:36.621Z,99.30
2022-10-25T19:28:07.023Z,99.40
2022-10-25T19:30:41.620Z,99.40
2022-10-25T19:33:11.940Z,99.30
2022-10-25T19:35:42.165Z,99.30
2022-10-25T19:38:12.771Z,99.30
2022-10-25T19:40:48.093Z,99.40
2022-10-25T19:43:18.281Z,99.50
2022-10-25T19:45:48.898Z,99.40
2022-10-25T19:48:21.425Z,99.10
2022-10-25T19:50:52.566Z,99.10
2022-10-25T19:53:22.934Z,99.10
2022-10-25T19:56:29.035Z,99.10
2022-10-25T19:58:59.682Z,99.10
2022-10-25T20:01:30.114Z,99.30
2022-10-25T20:04:01.496Z,99.50
2022-10-25T20:06:33.740Z,99.60
2022-10-25T20:09:04.801Z,99.20
2022-10-25T20:11:36.029Z,99.60
2022-10-25T20:14:06.463Z,99.80
2022-10-25T20:16:37.556Z,99.80
2022-10-25T20:19:08.102Z,99.90
2022-10-25T20:21:39.469Z,99.90
2022-10-25T20:24:11.402Z,99.50
2022-10-25T20:26:46.451Z,99.20
2022-10-25T20:29:24.729Z,99.70
2022-10-25T20:31:56.390Z,99.00
2022-10-25T20:34:27.000Z,99.00
2022-10-25T20:36:57.431Z,99.10
2022-10-25T20:39:28.357Z,99.20
2022-10-25T20:41:58.621Z,99.00
2022-10-25T20:44:29.379Z,98.90
2022-10-25T20:47:00.304Z,98.40
2022-10-25T20:49:30.442Z,97.70
2022-10-25T20:52:01.238Z,97.60
2022-10-25T20:54:31.380Z,97.80
2022-10-25T20:57:01.832Z,97.70
2022-10-25T20:59:32.044Z,97.70
2022-10-25T21:02:02.775Z,97.90
2022-10-25T21:07:23.498Z,98.30
2022-10-25T21:09:53.793Z,98.30
2022-10-25T21:12:24.456Z,98.50
2022-10-25T21:14:54.700Z,98.60
2022-10-25T21:17:25.513Z,98.60
2022-10-25T21:19:56.057Z,98.90
2022-10-25T21:22:26.979Z,99.00
2022-10-25T21:24:57.159Z,99.30
2022-10-25T21:27:27.994Z,99.60
2022-10-25T21:29:58.239Z,99.80
2022-10-25T21:32:28.504Z,99.70
2022-10-25T21:35:00.518Z,99.40
2022-10-25T21:37:31.317Z,99.10
2022-10-25T21:40:02.826Z,99.30
2022-10-25T21:42:37.841Z,99.40
2022-10-25T21:45:11.441Z,99.40
2022-10-25T21:47:43.966Z,99.40
2022-10-25T21:50:15.463Z,99.40
2022-10-25T21:52:46.116Z,99.60
2022-10-25T21:55:18.279Z,99.50
2022-10-25T21:57:53.218Z,99.30
2022-10-25T22:00:24.859Z,99.10
2022-10-25T22:02:55.960Z,99.00
2022-10-25T22:05:26.324Z,99.00
2022-10-25T22:07:57.594Z,99.10
2022-10-25T22:10:28.877Z,98.30
2022-10-25T22:13:01.345Z,98.40
2022-10-25T22:15:31.900Z,98.30
2022-10-25T22:18:02.252Z,98.40
2022-10-25T22:20:32.481Z,97.80
2022-10-25T22:23:03.840Z,98.00
2022-10-25T22:25:35.603Z,97.60
2022-10-25T22:28:06.050Z,97.50
2022-10-25T22:30:36.608Z,97.50
2022-10-25T22:33:06.858Z,97.30
2022-10-25T22:35:37.100Z,97.20
2022-10-25T22:38:07.385Z,97.60
2022-10-25T22:40:37.590Z,97.00
2022-10-25T22:43:08.030Z,96.30
2022-10-25T22:45:38.756Z,97.00
2022-10-25T22:48:09.441Z,96.70
2022-10-25T22:50:40.062Z,96.80
2022-10-25T22:53:11.487Z,96.70
2022-10-25T22:55:42.062Z,96.50
2022-10-25T22:58:13.060Z,96.40
2022-10-25T23:00:45.215Z,96.60
2022-10-25T23:03:16.668Z,96.40
2022-10-25T23:05:47.283Z,96.10
2022-10-25T23:08:25.255Z,96.20
2022-10-25T23:11:19.770Z,95.70
2022-10-25T23:13:51.572Z,94.80
2022-10-25T23:16:23.866Z,95.20
2022-10-25T23:18:55.953Z,95.50
2022-10-25T23:21:29.158Z,95.30
2022-10-25T23:24:02.569Z,95.60
2022-10-25T23:26:35.264Z,95.40
2022-10-25T23:29:07.121Z,95.80
2022-10-25T23:31:38.639Z,96.10
2022-10-25T23:34:09.730Z,95.50
2022-10-25T23:36:41.510Z,95.00
2022-10-25T23:39:12.432Z,93.30
2022-10-25T23:41:43.329Z,93.30
2022-10-25T23:44:13.632Z,93.00
2022-10-25T23:46:44.247Z,93.50
2022-10-25T23:49:14.427Z,93.70
2022-10-25T23:51:46.380Z,93.30
2022-10-25T23:54:17.028Z,93.70
2022-10-25T23:56:47.420Z,94.00
2022-10-25T23:59:17.584Z,92.60
